createdAt,value
2022-11-24T00:01:33.299Z,1.10
2022-11-24T00:04:07.383Z,1.88
2022-11-24T00:06:40.404Z,1.70
2022-11-24T00:09:13.281Z,1.27
2022-11-24T00:11:47.613Z,0.70
2022-11-24T00:14:21.099Z,0.98
2022-11-24T00:16:54.108Z,0.73
2022-11-24T00:19:26.920Z,0.40
2022-11-24T00:21:59.735Z,0.50
2022-11-24T00:24:32.838Z,0.32
2022-11-24T00:27:07.460Z,0.70
2022-11-24T00:29:40.309Z,0.70
2022-11-24T00:32:13.181Z,0.55
2022-11-24T00:34:45.977Z,0.40
2022-11-24T00:37:18.873Z,0.52
2022-11-24T00:39:51.707Z,0.75
2022-11-24T00:42:26.014Z,0.75
2022-11-24T00:44:58.996Z,0.77
2022-11-24T00:47:33.019Z,0.70
2022-11-24T00:50:06.794Z,0.50
2022-11-24T00:52:39.629Z,0.77
2022-11-24T00:55:12.490Z,0.50
2022-11-24T00:57:46.766Z,0.50
2022-11-24T01:00:20.022Z,0.60
2022-11-24T01:02:53.913Z,0.70
2022-11-24T01:05:26.904Z,0.47
2022-11-24T01:07:59.853Z,0.70
2022-11-24T01:10:33.428Z,0.88
2022-11-24T01:13:07.991Z,0.60
2022-11-24T01:15:41.315Z,0.70
2022-11-24T01:18:14.214Z,0.68
2022-11-24T01:20:47.012Z,0.80
2022-11-24T01:23:19.882Z,0.43
2022-11-24T01:25:52.693Z,0.70
2022-11-24T01:28:27.394Z,0.90
2022-11-24T01:31:00.866Z,0.80
2022-11-24T01:33:34.753Z,1.15
2022-11-24T01:36:08.398Z,0.80
2022-11-24T01:38:41.274Z,0.88
2022-11-24T01:41:17.091Z,0.70
2022-11-24T01:43:52.943Z,0.88
2022-11-24T01:46:29.514Z,0.80
2022-11-24T01:49:07.894Z,0.88
2022-11-24T01:51:44.714Z,0.93
2022-11-24T01:54:21.626Z,0.77
2022-11-24T01:56:57.108Z,1.00
2022-11-24T01:59:32.364Z,0.90
2022-11-24T02:02:05.776Z,0.93
2022-11-24T02:04:39.639Z,1.23
2022-11-24T02:07:13.964Z,0.98
2022-11-24T02:09:50.737Z,0.68
2022-11-24T02:12:25.790Z,0.90
2022-11-24T02:15:00.642Z,0.70
2022-11-24T02:17:33.535Z,0.70
2022-11-24T02:20:09.031Z,0.82
2022-11-24T02:22:49.993Z,0.70
2022-11-24T02:25:32.691Z,0.77
2022-11-24T02:28:09.973Z,0.75
2022-11-24T02:30:43.043Z,0.80
2022-11-24T02:33:16.452Z,1.20
2022-11-24T02:35:49.532Z,0.90
2022-11-24T02:38:31.188Z,1.00
2022-11-24T02:41:07.567Z,0.90
2022-11-24T02:43:45.973Z,1.00
2022-11-24T02:46:18.921Z,0.90
2022-11-24T02:48:52.059Z,1.00
2022-11-24T02:51:25.053Z,1.00
2022-11-24T02:53:57.871Z,0.90
2022-11-24T02:56:30.701Z,1.00
2022-11-24T02:59:04.929Z,1.08
2022-11-24T03:01:37.789Z,0.80
2022-11-24T03:04:10.735Z,0.80
2022-11-24T03:06:43.845Z,0.93
2022-11-24T03:09:16.764Z,0.90
2022-11-24T03:11:49.625Z,0.70
2022-11-24T03:14:23.890Z,1.20
2022-11-24T03:16:56.713Z,1.10
2022-11-24T03:19:29.493Z,1.05
2022-11-24T03:22:02.492Z,0.80
2022-11-24T03:24:35.539Z,1.00
2022-11-24T03:27:08.603Z,0.80
2022-11-24T03:29:43.173Z,0.50
2022-11-24T03:32:16.136Z,0.85
2022-11-24T03:34:48.942Z,0.98
2022-11-24T03:37:22.686Z,0.82
2022-11-24T03:39:55.511Z,0.80
2022-11-24T03:42:28.457Z,0.90
2022-11-24T03:45:29.889Z,0.73
2022-11-24T03:47:55.753Z,1.20
2022-11-24T03:50:28.772Z,0.88
2022-11-24T03:53:01.624Z,1.00
2022-11-24T03:55:34.504Z,0.85
2022-11-24T03:58:07.771Z,1.02
2022-11-24T04:00:43.006Z,0.50
2022-11-24T04:03:15.985Z,0.68
2022-11-24T04:05:49.386Z,0.80
2022-11-24T04:08:22.460Z,0.90
2022-11-24T04:10:55.688Z,0.80
2022-11-24T04:13:27.800Z,0.57
2022-11-24T04:16:06.197Z,0.63
2022-11-24T04:18:39.495Z,0.90
2022-11-24T04:21:12.285Z,0.60
2022-11-24T04:23:45.146Z,0.70
2022-11-24T04:26:18.051Z,0.60
2022-11-24T04:28:50.890Z,0.80
2022-11-24T04:31:25.173Z,0.85
2022-11-24T04:33:58.092Z,0.63
2022-11-24T04:36:30.930Z,0.70
2022-11-24T04:39:22.975Z,0.57
2022-11-24T04:41:56.980Z,0.50
2022-11-24T04:44:30.007Z,0.55
2022-11-24T04:47:04.319Z,0.70
2022-11-24T04:49:37.462Z,0.60
2022-11-24T04:52:10.531Z,0.68
2022-11-24T04:54:43.592Z,1.35
2022-11-24T04:57:18.712Z,0.75
2022-11-24T04:59:52.700Z,0.77
2022-11-24T05:02:27.103Z,0.77
2022-11-24T05:04:59.987Z,0.75
2022-11-24T05:07:36.550Z,0.80
2022-11-24T05:10:27.699Z,0.98
2022-11-24T05:13:00.510Z,0.60
2022-11-24T05:15:34.281Z,0.60
2022-11-24T05:18:09.706Z,0.70
2022-11-24T05:20:44.710Z,0.50
2022-11-24T05:23:17.609Z,0.70
2022-11-24T05:25:50.524Z,0.50
2022-11-24T05:28:23.295Z,0.57
2022-11-24T05:30:56.238Z,0.60
2022-11-24T05:33:30.485Z,0.50
2022-11-24T05:36:05.076Z,0.68
2022-11-24T05:38:37.870Z,0.80
2022-11-24T05:41:10.695Z,0.80
2022-11-24T05:43:43.491Z,0.70
2022-11-24T05:46:16.383Z,0.75
2022-11-24T05:48:50.856Z,0.52
2022-11-24T05:51:24.168Z,1.00
2022-11-24T05:53:56.960Z,0.80
2022-11-24T05:56:29.852Z,0.88
2022-11-24T05:59:08.139Z,0.77
2022-11-24T06:01:42.699Z,0.50
2022-11-24T06:04:17.043Z,1.10
2022-11-24T06:06:49.886Z,0.50
2022-11-24T06:09:22.722Z,1.20
2022-11-24T06:11:56.122Z,0.60
2022-11-24T06:14:29.004Z,1.02
2022-11-24T06:17:02.410Z,0.82
2022-11-24T06:19:41.733Z,0.90
2022-11-24T06:22:15.033Z,0.70
2022-11-24T06:24:48.035Z,1.02
2022-11-24T06:27:20.934Z,0.57
2022-11-24T06:29:53.937Z,1.25
2022-11-24T06:32:26.837Z,1.05
2022-11-24T06:35:01.091Z,0.70
2022-11-24T06:37:36.979Z,0.82
2022-11-24T06:40:10.767Z,0.90
2022-11-24T06:42:43.567Z,0.65
2022-11-24T06:45:16.563Z,0.77
2022-11-24T06:47:49.377Z,0.90
2022-11-24T06:50:27.991Z,1.00
2022-11-24T06:53:03.456Z,0.73
2022-11-24T06:55:36.476Z,0.80
2022-11-24T06:58:09.560Z,0.75
2022-11-24T07:00:42.592Z,0.90
2022-11-24T07:03:17.386Z,1.30
2022-11-24T07:05:57.434Z,0.90
2022-11-24T07:08:30.310Z,1.25
2022-11-24T07:11:06.359Z,0.88
2022-11-24T07:13:39.470Z,1.00
2022-11-24T07:16:17.135Z,0.90
2022-11-24T07:18:52.290Z,0.95
2022-11-24T07:21:27.838Z,0.90
2022-11-24T07:24:00.727Z,0.88
2022-11-24T07:26:37.421Z,1.08
2022-11-24T07:29:10.432Z,0.90
2022-11-24T07:31:43.593Z,1.33
2022-11-24T07:34:16.477Z,1.00
2022-11-24T07:36:51.241Z,0.98
2022-11-24T07:39:24.520Z,1.00
2022-11-24T07:41:57.318Z,0.75
2022-11-24T07:44:30.110Z,0.90
2022-11-24T07:47:02.900Z,0.88
2022-11-24T07:49:35.731Z,1.20
2022-11-24T07:52:10.463Z,0.82
2022-11-24T07:54:43.553Z,1.13
2022-11-24T07:57:16.409Z,0.90
2022-11-24T07:59:49.282Z,1.23
2022-11-24T08:02:22.344Z,1.63
2022-11-24T08:04:55.153Z,1.27
2022-11-24T08:07:29.836Z,1.10
2022-11-24T08:10:02.817Z,0.95
2022-11-24T08:12:35.804Z,0.90
2022-11-24T08:15:11.421Z,0.57
2022-11-24T08:17:44.362Z,0.80
2022-11-24T08:20:17.978Z,0.82
2022-11-24T08:22:52.600Z,1.02
2022-11-24T08:25:27.003Z,0.90
2022-11-24T08:27:59.900Z,1.13
2022-11-24T08:30:33.500Z,1.42
2022-11-24T08:33:06.346Z,1.08
2022-11-24T08:35:39.554Z,1.05
2022-11-24T08:38:13.800Z,0.93
2022-11-24T08:40:46.977Z,1.17
2022-11-24T08:43:19.771Z,1.60
2022-11-24T08:45:52.961Z,1.05
2022-11-24T08:48:28.119Z,1.00
2022-11-24T08:51:07.168Z,1.50
2022-11-24T08:53:42.332Z,1.30
2022-11-24T08:56:15.487Z,0.80
2022-11-24T08:58:48.472Z,1.33
2022-11-24T09:01:21.983Z,1.40
2022-11-24T09:03:55.351Z,1.20
2022-11-24T09:06:31.346Z,2.08
2022-11-24T09:09:05.528Z,1.15
2022-11-24T09:11:39.043Z,1.20
2022-11-24T09:14:12.366Z,1.40
2022-11-24T09:16:45.716Z,1.00
2022-11-24T09:19:18.597Z,1.35
2022-11-24T09:21:51.468Z,0.75
2022-11-24T09:24:25.935Z,1.23
2022-11-24T09:26:59.084Z,1.00
2022-11-24T09:29:32.255Z,1.05
2022-11-24T09:32:07.168Z,0.90
2022-11-24T09:34:41.588Z,1.17
2022-11-24T09:37:14.757Z,1.00
2022-11-24T09:39:49.358Z,1.20
2022-11-24T09:42:35.347Z,0.93
2022-11-24T09:45:26.275Z,0.82
2022-11-24T09:48:05.342Z,0.90
2022-11-24T09:50:39.493Z,1.00
2022-11-24T09:53:17.301Z,0.77
2022-11-24T09:55:53.632Z,0.80
2022-11-24T09:58:37.259Z,0.80
2022-11-24T10:01:16.883Z,0.77
2022-11-24T10:03:52.100Z,0.80
2022-11-24T10:06:28.178Z,1.08
2022-11-24T10:09:25.840Z,1.13
2022-11-24T10:12:13.044Z,0.98
2022-11-24T10:15:19.260Z,0.93
2022-11-24T10:18:23.767Z,0.88
2022-11-24T10:21:06.394Z,0.77
2022-11-24T10:23:55.347Z,0.60
2022-11-24T10:26:36.499Z,0.93
2022-11-24T10:29:22.501Z,0.95
2022-11-24T10:31:57.302Z,1.10
2022-11-24T10:34:35.001Z,1.15
2022-11-24T10:37:17.213Z,1.23
2022-11-24T10:40:00.296Z,0.93
2022-11-24T10:42:36.970Z,1.23
2022-11-24T10:45:14.220Z,1.00
2022-11-24T10:47:47.488Z,1.42
2022-11-24T10:50:23.424Z,1.20
2022-11-24T10:53:04.694Z,1.17
2022-11-24T10:55:58.579Z,1.33
2022-11-24T10:58:37.600Z,1.08
2022-11-24T11:01:31.275Z,1.42
2022-11-24T11:04:18.360Z,1.67
2022-11-24T11:06:51.180Z,2.15
2022-11-24T11:09:24.412Z,1.38
2022-11-24T11:11:59.160Z,1.10
2022-11-24T11:14:38.652Z,1.08
2022-11-24T11:17:35.917Z,1.30
2022-11-24T11:20:19.518Z,1.20
2022-11-24T11:22:52.361Z,0.70
2022-11-24T11:25:30.547Z,1.10
2022-11-24T11:28:22.992Z,0.90
2022-11-24T11:31:19.237Z,1.13
2022-11-24T11:34:06.257Z,0.90
2022-11-24T11:36:45.072Z,1.05
2022-11-24T11:39:24.998Z,0.80
2022-11-24T11:42:37.841Z,1.23
2022-11-24T11:45:15.124Z,0.93
2022-11-24T11:47:53.535Z,1.02
2022-11-24T11:50:47.386Z,1.30
2022-11-24T11:53:37.025Z,1.30
2022-11-24T11:56:21.238Z,1.10
2022-11-24T11:59:35.536Z,1.10
2022-11-24T12:02:34.715Z,1.42
2022-11-24T12:05:16.961Z,1.35
2022-11-24T12:08:09.383Z,0.93
2022-11-24T12:10:51.827Z,0.95
2022-11-24T12:13:42.575Z,1.30
2022-11-24T12:16:30.939Z,1.65
2022-11-24T12:19:20.840Z,1.38
2022-11-24T12:22:05.462Z,1.10
2022-11-24T12:24:46.840Z,1.38
2022-11-24T12:27:33.219Z,1.35
2022-11-24T12:30:11.875Z,1.05
2022-11-24T12:33:20.649Z,1.38
2022-11-24T12:36:03.670Z,1.48
2022-11-24T12:38:48.205Z,1.40
2022-11-24T12:41:47.555Z,1.30
2022-11-24T12:44:36.516Z,1.50
2022-11-24T12:47:17.455Z,1.15
2022-11-24T12:50:03.862Z,0.90
2022-11-24T12:52:40.954Z,1.27
2022-11-24T12:55:18.499Z,1.00
2022-11-24T12:57:57.971Z,1.65
2022-11-24T13:00:35.938Z,1.17
2022-11-24T13:03:24.199Z,1.25
2022-11-24T13:06:02.244Z,0.90
2022-11-24T13:08:38.116Z,1.08
2022-11-24T13:11:42.737Z,0.90
2022-11-24T13:14:21.709Z,0.93
2022-11-24T13:17:28.493Z,0.93
2022-11-24T13:19:52.366Z,0.90
2022-11-24T13:22:27.326Z,0.88
2022-11-24T13:25:17.435Z,1.13
2022-11-24T13:27:53.254Z,1.00
2022-11-24T13:30:56.194Z,1.33
2022-11-24T13:33:37.770Z,0.95
2022-11-24T13:36:35.637Z,0.85
2022-11-24T13:39:21.202Z,1.13
2022-11-24T13:42:03.103Z,0.73
2022-11-24T13:50:14.556Z,0.70
2022-11-24T13:52:50.178Z,0.90
2022-11-24T13:55:27.198Z,0.93
2022-11-24T13:58:21.885Z,0.70
2022-11-24T14:01:13.198Z,1.00
2022-11-24T14:04:43.160Z,0.90
2022-11-24T14:07:15.478Z,0.70
2022-11-24T14:09:51.236Z,0.80
2022-11-24T14:12:25.961Z,0.65
2022-11-24T14:15:26.367Z,1.40
2022-11-24T14:17:59.147Z,0.82
2022-11-24T14:20:32.122Z,0.73
2022-11-24T14:23:04.930Z,0.85
2022-11-24T14:25:37.812Z,0.70
2022-11-24T14:28:21.549Z,0.75
2022-11-24T14:31:09.819Z,0.88
2022-11-24T14:33:42.656Z,0.95
2022-11-24T14:36:16.322Z,0.90
2022-11-24T14:38:49.143Z,0.80
2022-11-24T14:41:26.319Z,0.65
2022-11-24T14:44:08.502Z,0.80
2022-11-24T14:46:43.449Z,1.50
2022-11-24T14:49:22.018Z,1.10
2022-11-24T14:51:58.652Z,0.75
2022-11-24T14:54:32.207Z,0.73
2022-11-24T14:57:07.410Z,0.95
2022-11-24T14:59:40.202Z,0.88
2022-11-24T15:02:44.139Z,0.75
2022-11-24T15:05:17.661Z,0.90
2022-11-24T15:07:52.625Z,0.70
2022-11-24T15:10:37.647Z,0.68
2022-11-24T15:13:19.524Z,0.90
2022-11-24T15:18:42.752Z,0.80
2022-11-24T15:21:19.538Z,1.00
2022-11-24T15:24:07.791Z,1.00
2022-11-24T15:26:42.384Z,1.20
2022-11-24T15:29:15.396Z,0.95
2022-11-24T15:31:52.559Z,1.17
2022-11-24T15:34:27.313Z,0.90
2022-11-24T15:37:00.127Z,0.90
2022-11-24T15:39:32.966Z,0.85
2022-11-24T15:42:05.920Z,1.00
2022-11-24T15:44:38.756Z,1.20
2022-11-24T15:47:11.616Z,0.80
2022-11-24T15:49:45.857Z,0.85
2022-11-24T15:52:20.634Z,1.02
2022-11-24T15:54:57.188Z,0.82
2022-11-24T15:57:29.968Z,0.88
2022-11-24T16:00:03.037Z,1.00
2022-11-24T16:02:35.959Z,1.40
2022-11-24T16:05:11.172Z,0.80
2022-11-24T16:07:44.550Z,1.33
2022-11-24T16:10:25.917Z,1.05
2022-11-24T16:12:58.780Z,1.10
2022-11-24T16:15:31.635Z,0.95
2022-11-24T16:18:05.141Z,1.30
2022-11-24T16:20:39.290Z,1.38
2022-11-24T16:23:12.146Z,1.70
2022-11-24T16:25:44.949Z,1.77
2022-11-24T16:28:18.283Z,1.48
2022-11-24T16:30:51.483Z,2.05
2022-11-24T16:33:24.520Z,2.33
2022-11-24T16:35:58.818Z,2.28
2022-11-24T16:38:31.621Z,1.73
2022-11-24T16:41:04.479Z,1.73
2022-11-24T16:43:37.447Z,1.80
2022-11-24T16:46:19.798Z,1.60
2022-11-24T16:48:54.906Z,1.50
2022-11-24T16:51:34.506Z,1.30
2022-11-24T16:54:07.944Z,1.20
2022-11-24T16:56:40.850Z,1.20
2022-11-24T16:59:13.680Z,1.27
2022-11-24T17:01:50.439Z,1.10
2022-11-24T17:04:23.434Z,0.98
2022-11-24T17:06:58.780Z,0.93
2022-11-24T17:09:36.006Z,2.03
2022-11-24T17:12:12.913Z,1.60
2022-11-24T17:15:03.105Z,1.80
2022-11-24T17:17:55.197Z,1.48
2022-11-24T17:20:31.803Z,1.40
2022-11-24T17:23:06.243Z,1.52
2022-11-24T17:25:39.086Z,1.42
2022-11-24T17:28:11.958Z,1.08
2022-11-24T17:30:44.803Z,1.20
2022-11-24T17:33:17.611Z,1.30
2022-11-24T17:35:50.410Z,0.85
2022-11-24T17:38:24.700Z,0.85
2022-11-24T17:40:57.485Z,1.20
2022-11-24T17:43:30.465Z,1.17
2022-11-24T17:46:05.445Z,1.60
2022-11-24T17:48:38.333Z,1.55
2022-11-24T17:51:13.843Z,1.95
2022-11-24T17:53:50.535Z,1.27
2022-11-24T17:56:24.661Z,1.00
2022-11-24T17:58:59.153Z,1.23
2022-11-24T18:01:33.056Z,1.20
2022-11-24T18:04:06.187Z,1.40
2022-11-24T18:06:39.510Z,1.60
2022-11-24T18:09:13.944Z,1.30
2022-11-24T18:11:47.859Z,1.40
2022-11-24T18:14:20.789Z,1.58
2022-11-24T18:16:54.780Z,1.42
2022-11-24T18:19:27.705Z,1.38
2022-11-24T18:22:00.496Z,1.33
2022-11-24T18:24:34.677Z,1.30
2022-11-24T18:27:07.496Z,1.67
2022-11-24T18:29:40.482Z,1.85
2022-11-24T18:32:13.468Z,1.85
2022-11-24T18:34:46.398Z,1.77
2022-11-24T18:37:19.224Z,1.88
2022-11-24T18:39:53.484Z,1.77
2022-11-24T18:42:26.641Z,1.70
2022-11-24T18:44:59.442Z,1.90
2022-11-24T18:47:32.232Z,1.63
2022-11-24T18:50:05.959Z,1.73
2022-11-24T18:52:38.762Z,1.70
2022-11-24T18:55:12.995Z,1.60
2022-11-24T18:57:45.784Z,1.40
2022-11-24T19:00:19.072Z,1.88
2022-11-24T19:02:52.117Z,2.20
2022-11-24T19:05:25.114Z,2.58
2022-11-24T19:07:58.014Z,2.88
2022-11-24T19:10:32.609Z,2.10
2022-11-24T19:13:05.860Z,2.17
2022-11-24T19:15:38.694Z,1.70
2022-11-24T19:18:11.597Z,1.75
2022-11-24T19:20:44.493Z,1.90
2022-11-24T19:23:18.665Z,2.08
2022-11-24T19:25:52.823Z,2.08
2022-11-24T19:28:25.620Z,2.25
2022-11-24T19:31:01.442Z,2.13
2022-11-24T19:33:34.826Z,2.20
2022-11-24T19:36:09.938Z,1.70
2022-11-24T19:38:43.744Z,1.30
2022-11-24T19:41:19.539Z,1.60
2022-11-24T19:43:53.446Z,1.60
2022-11-24T19:46:28.550Z,1.40
2022-11-24T19:49:02.858Z,1.95
2022-11-24T19:51:37.298Z,1.50
2022-11-24T19:54:14.072Z,2.85
2022-11-24T19:56:48.321Z,3.85
2022-11-24T19:59:23.504Z,4.78
2022-11-24T20:01:56.698Z,3.53
2022-11-24T20:04:29.616Z,3.50
2022-11-24T20:07:02.436Z,2.42
2022-11-24T20:09:35.247Z,2.50
2022-11-24T20:12:10.018Z,2.72
2022-11-24T20:14:42.849Z,2.60
2022-11-24T20:17:15.773Z,3.20
2022-11-24T20:19:48.650Z,4.43
2022-11-24T20:22:21.485Z,3.72
2022-11-24T20:24:54.277Z,3.03
2022-11-24T20:27:28.509Z,3.20
2022-11-24T20:30:01.337Z,2.55
2022-11-24T20:32:34.209Z,2.67
2022-11-24T20:35:07.732Z,3.03
2022-11-24T20:37:40.691Z,3.03
2022-11-24T20:40:13.877Z,2.30
2022-11-24T20:42:48.062Z,2.15
2022-11-24T20:45:21.023Z,1.90
2022-11-24T20:47:54.245Z,2.15
2022-11-24T20:50:27.101Z,1.83
2022-11-24T20:52:59.928Z,1.65
2022-11-24T20:55:34.441Z,1.55
2022-11-24T20:58:08.769Z,1.42
2022-11-24T21:00:41.775Z,1.85
2022-11-24T21:03:14.712Z,1.35
2022-11-24T21:05:47.527Z,1.30
2022-11-24T21:08:20.498Z,1.50
2022-11-24T21:10:54.707Z,1.40
2022-11-24T21:13:29.793Z,2.03
2022-11-24T21:16:13.159Z,1.15
2022-11-24T21:18:47.403Z,1.30
2022-11-24T21:21:21.548Z,1.40
2022-11-24T21:23:54.428Z,1.40
2022-11-24T21:26:27.199Z,1.40
2022-11-24T21:29:01.454Z,1.50
2022-11-24T21:31:37.022Z,1.40
2022-11-24T21:34:10.328Z,1.30
2022-11-24T21:36:45.021Z,1.48
2022-11-24T21:39:18.622Z,1.60
2022-11-24T21:41:51.629Z,1.27
2022-11-24T21:44:26.059Z,1.48
2022-11-24T21:46:58.929Z,1.70
2022-11-24T21:49:31.710Z,1.60
2022-11-24T21:52:04.712Z,1.27
2022-11-24T21:54:37.703Z,1.77
2022-11-24T21:57:10.952Z,1.30
2022-11-24T21:59:45.186Z,1.00
2022-11-24T22:02:18.040Z,1.33
2022-11-24T22:04:50.960Z,1.23
2022-11-24T22:07:24.069Z,1.15
2022-11-24T22:09:57.049Z,1.30
2022-11-24T22:12:30.230Z,1.50
2022-11-24T22:15:04.807Z,1.17
2022-11-24T22:17:37.639Z,1.45
2022-11-24T22:20:11.201Z,1.30
2022-11-24T22:22:44.014Z,1.20
2022-11-24T22:25:16.935Z,1.40
2022-11-24T22:27:49.775Z,1.60
2022-11-24T22:30:24.115Z,1.65
2022-11-24T22:32:57.373Z,2.20
2022-11-24T22:35:30.223Z,1.90
2022-11-24T22:38:03.004Z,1.58
2022-11-24T22:40:35.831Z,1.40
2022-11-24T22:43:08.635Z,1.30
2022-11-24T22:45:42.973Z,1.30
2022-11-24T22:48:15.851Z,1.48
2022-11-24T22:50:48.707Z,1.38
2022-11-24T22:53:21.545Z,1.10
2022-11-24T22:55:54.430Z,1.10
2022-11-24T22:58:27.229Z,1.00
2022-11-24T23:01:06.445Z,1.15
2022-11-24T23:03:40.244Z,1.08
2022-11-24T23:06:14.869Z,1.40
2022-11-24T23:08:48.309Z,1.15
2022-11-24T23:11:27.343Z,1.27
2022-11-24T23:14:03.701Z,1.42
2022-11-24T23:16:38.177Z,1.60
2022-11-24T23:19:11.409Z,1.27
2022-11-24T23:21:44.300Z,1.30
2022-11-24T23:24:17.258Z,1.50
2022-11-24T23:26:50.139Z,1.38
2022-11-24T23:29:22.971Z,1.10
2022-11-24T23:31:57.396Z,1.40
2022-11-24T23:34:30.242Z,1.00
2022-11-24T23:37:03.111Z,1.40
2022-11-24T23:39:35.888Z,1.23
2022-11-24T23:42:08.799Z,1.05
2022-11-24T23:44:41.601Z,1.55
2022-11-24T23:47:16.334Z,1.05
2022-11-24T23:49:49.174Z,1.15
2022-11-24T23:52:21.995Z,0.93
2022-11-24T23:54:54.786Z,0.93
2022-11-24T23:57:28.218Z,0.82
